• Join FlightAware (Why Join?)
  • Login
  • US Flag 
07:04AM EST


 

Airport Tracker/Info


-or-


 

Live Flight TrackerFlight Track Log ✈ AWI3688 ✈ 29-Apr-2013 ✈ KALB - KPHL

Flight Track Log - Related Links

Times and Time Zones

All times are in EDT time to prevent confusion due to time zone crossing. See the AWI3688 flight status page for this flight to view local times or setup timezone preferences in your user account.

Time Position Orientation Groundspeed Altitude Reporting Facility
EDT Latitude Longitude Course Direction KTS MPH feet Rate Location/Type
02:30PM 42.7339 -73.8081 223° Southwest 154 177 1,200  Level Boston Center
02:31PM 42.6983 -73.8186 192° South 171 197 3,200 2,700 Climbing Boston Center
02:32PM 42.6981 -73.8442 269° West 222 255 4,200 3,060 Climbing Boston Center
02:33PM 42.7033 -73.9206 275° West 222 255 7,500 3,000 Climbing Boston Center
02:34PM 42.6766 -74.3785 220° Southwest  Level FlightAware Approximate
02:34PM 42.7128 -74.0056 279° West 227 261 10,200  Level Boston Center
02:35PM 42.6081 -74.4555 220° Southwest  Level FlightAware Approximate
02:35PM 42.7239 -74.1047 279° West 240 276 11,300  Level Boston Center
02:36PM 42.5416 -74.5355 223° Southwest  Level FlightAware Approximate
02:36PM 42.7347 -74.2067 278° West 290 334 13,500  Level Boston Center
02:37PM 42.7286 -74.3283 266° West 303 349 15,700 2,040 Climbing Boston Center
02:38PM 42.6669 -74.3969 219° Southwest 295 339 17,600 1,620 Climbing Boston Center
02:39PM 42.5903 -74.4875 221° Southwest 327 376 19,000 660 Climbing Boston Center
02:40PM 42.5306 -74.5731 227° Southwest 343 395 19,000  Level Boston Center
02:41PM 42.4781 -74.6950 240° Southwest 343 395 19,000  Level Boston Center
02:42PM 42.4078 -74.7628 215° Southwest 349 402 19,000  Level Boston Center
02:44PM 42.2428 -74.9053 213° Southwest 334 384 19,000  Level New York Center
02:45PM 42.1525 -74.9808 212° Southwest 348 400 19,000  Level New York Center
02:46PM 42.0753 -75.0458 212° Southwest 354 407 19,000  Level New York Center
02:47PM 41.9875 -75.1181 211° Southwest 354 407 19,000  Level New York Center
02:48PM 41.9039 -75.1850 211° Southwest 354 407 19,000  Level New York Center
02:49PM 41.8200 -75.2519 211° Southwest 354 407 19,000 -120 Level New York Center
02:50PM 41.7447 -75.3136 211° Southwest 354 407 18,800 -720 Descending New York Center
02:51PM 41.6503 -75.3903 211° Southwest 354 407 17,600 -1,860 Descending New York Center
02:52PM 41.5686 -75.4569 211° Southwest 354 407 15,100 -2,460 Descending New York Center
02:53PM 41.4911 -75.5178 210° Southwest 342 394 12,700 -1,560 Descending New York Center
02:54PM 41.4244 -75.5711 211° Southwest 326 375 12,000 -360 Descending New York Center
02:55PM 41.3428 -75.6344 210° Southwest 316 364 12,000 -120 Level New York Center
02:56PM 41.2825 -75.6797 209° Southwest 316 364 11,800 -900 Descending New York Center
02:57PM 41.1800 -75.6889 184° South 308 354 10,200 -900 Descending New York Center
02:58PM 41.0989 -75.6886 180° South 308 354 10,000 -120 Descending New York Center
02:59PM 41.0114 -75.6878 180° South 308 354 10,000  Level New York Center
03:00PM 40.9361 -75.6906 182° South 308 354 10,000  Level New York Center
03:01PM 40.8406 -75.6864 178° South 308 354 10,000  Level New York Center
03:02PM 40.7572 -75.6886 181° South 308 354 10,000  Level New York Center
03:03PM 40.6800 -75.6886 180° South 308 354 10,000  Level New York Center
03:04PM 40.6089 -75.6450 155° Southeast 301 346 10,000  Level New York Center
03:05PM 40.5514 -75.5728 136° Southeast 288 331 10,000 -360 Level New York Center
03:06PM 40.5100 -75.5125 132° Southeast 246 283 9,400 -540 Descending New York Center
03:07PM 40.4667 -75.4550 135° Southeast 226 260 9,000 -420 Descending New York Center
03:08PM 40.4186 -75.4544 179° South 176 203 8,600 -840 Descending New York Center
03:09PM 40.3750 -75.5033 221° Southwest 178 205 7,400 -960 Descending New York Center
03:10PM 40.3347 -75.4706 148° Southeast 152 175 6,800 -900 Descending New York Center
03:11PM 40.2942 -75.4406 151° Southeast 158 182 5,700 -1,200 Descending New York Center
03:12PM 40.2575 -75.4192 156° South 163 188 4,500 -1,200 Descending New York Center
03:13PM 40.2164 -75.4028 163° South 163 188 3,300 -780 Descending New York Center
03:14PM 40.1714 -75.3808 160° South 158 182 3,000 -180 Descending New York Center
03:15PM 40.1325 -75.3617 159° South 158 182 3,000  Level New York Center
03:16PM 40.0936 -75.3431 160° South 158 182 3,000  Level New York Center
03:16PM 40.0667 -75.3333 165° South 158 182 3,000 -120 Level Philadelphia TRACON
03:18PM 40.0167 -75.3000 153° Southeast 153 176 2,800 -480 Descending Philadelphia TRACON
03:19PM 39.9833 -75.2833 159° South 144 166 2,000 -780 Descending Philadelphia TRACON
03:19PM 39.9500 -75.2667 159° South 115 132 1,500 -660 Descending Philadelphia TRACON
03:21PM 39.9167 -75.2500 159° South 119 137 700 -720 Descending Philadelphia TRACON
03:22PM 39.8667 -75.2333 166° South  Level FlightAware Approximate
03:29PM 39.8722 -75.2409 166° South  Level Estimated
03:30PM 39.8722 -75.2409 166° South  Level Estimated